»·PEaware :: N172SP L88-KSBP

N172SP :: L88-KSBP

FLIGHT INFORMATION

Flight Status: Arrived
Operator: Privately registered:
United States
More flights under this callsign
Pilot: Jeremy K. (15416)
Aircraft: CESSNA 172 SKYHAWK
(C172)
More flights by this aircraft type
Origin: L88 New Cuyama
United States
Destination: KSBP San Luis Co Regl
United States
More flights between these airports :: More routes between these airports
Route:
File this flight plan on PilotEdge
Remarks: CAT 02
Altitude:
(Current/Filed)
65,000ft
Speed:
(Current/Filed)
120kts
Departed: 20-May-17 07:05 PM
Arrived: 20-May-17 07:57 PM
Distance/Time
Traveled:
50nm/0:51
Distance/Time
To Go:
Arrived

Flight Plot

Page will automatically refresh every two minutes.


Map Options




Map Legend


Flown Route
Filed Route
Departure Airport
Arrival Airport
Navaid (VOR, NDB)
Fix

Horizontal Profiles

Position Reports

Time Latitude Longitude Heading Altitude Ground
Speed
20-May-17 19:02 34.943572 -119.690579 294 2207ft 0kts
20-May-17 19:03 34.942432 -119.691189 168 2207ft 13kts
20-May-17 19:04 34.941562 -119.689567 118 2207ft 14kts
20-May-17 19:05 34.939838 -119.685420 120 2207ft 27kts
20-May-17 19:06 34.938061 -119.681140 121 2207ft 15kts
20-May-17 19:07 34.940118 -119.686069 297 2207ft 83kts
20-May-17 19:08 34.947561 -119.701887 292 2734ft 93kts
20-May-17 19:09 34.952803 -119.718850 281 3131ft 102kts
20-May-17 19:10 34.957171 -119.737581 283 3524ft 106kts
20-May-17 19:11 34.962258 -119.756139 285 3906ft 107kts
20-May-17 19:12 34.967683 -119.774648 285 4286ft 107kts
20-May-17 19:13 34.973425 -119.793588 286 4679ft 106kts
20-May-17 19:14 34.979171 -119.812221 285 5069ft 105kts
20-May-17 19:15 34.984877 -119.830548 285 5459ft 101kts
20-May-17 19:16 34.990509 -119.848572 285 5859ft 99kts
20-May-17 19:17 34.996080 -119.866383 285 6263ft 97kts
20-May-17 19:18 35.001527 -119.883866 285 6537ft 107kts
20-May-17 19:19 35.007456 -119.902859 286 6613ft 120kts
20-May-17 19:20 35.013803 -119.923118 286 6562ft 130kts
20-May-17 19:21 35.020414 -119.944188 286 6539ft 131kts
20-May-17 19:22 35.027039 -119.965329 286 6539ft 131kts
20-May-17 19:23 35.033600 -119.986289 286 6539ft 131kts
20-May-17 19:24 35.040138 -120.007207 286 6539ft 130kts
20-May-17 19:25 35.046655 -120.028079 286 6539ft 130kts
20-May-17 19:26 35.053221 -120.049123 286 6539ft 130kts
20-May-17 19:27 35.059751 -120.070066 286 6539ft 130kts
20-May-17 19:28 35.066338 -120.090875 287 6539ft 130kts
20-May-17 19:29 35.072978 -120.111589 287 6539ft 130kts
20-May-17 19:30 35.079823 -120.133315 286 6540ft 130kts
20-May-17 19:31 35.089237 -120.163536 286 6540ft 130kts
20-May-17 19:32 35.097938 -120.191551 286 6540ft 130kts
20-May-17 19:33 35.105962 -120.217415 286 6537ft 130kts
20-May-17 19:34 35.111594 -120.239272 261 6532ft 126kts
20-May-17 19:35 35.108074 -120.262724 250 6538ft 123kts
20-May-17 19:36 35.104272 -120.281475 251 6537ft 124kts
20-May-17 19:37 35.104039 -120.302459 264 6536ft 125kts
20-May-17 19:38 35.105061 -120.323075 268 6537ft 126kts
20-May-17 19:39 35.106044 -120.342814 268 6537ft 127kts
20-May-17 19:40 35.108787 -120.362325 279 6538ft 128kts
20-May-17 19:41 35.112899 -120.381687 280 6537ft 129kts
20-May-17 19:42 35.116946 -120.400854 280 6537ft 129kts
20-May-17 19:43 35.121057 -120.419863 283 6537ft 129kts
20-May-17 19:44 35.128831 -120.438631 297 6533ft 122kts
20-May-17 19:45 35.137383 -120.455008 298 6534ft 113kts
20-May-17 19:46 35.145519 -120.470454 298 6531ft 103kts
20-May-17 19:47 35.152906 -120.484288 298 6378ft 109kts
20-May-17 19:48 35.161724 -120.501337 298 5786ft 124kts
20-May-17 19:49 35.169832 -120.519713 290 4756ft 133kts
20-May-17 19:50 35.177849 -120.538774 301 3658ft 143kts
20-May-17 19:51 35.189336 -120.557728 307 2455ft 139kts
20-May-17 19:52 35.199540 -120.574794 304 2047ft 92kts
20-May-17 19:53 35.206203 -120.586861 300 1551ft 91kts
20-May-17 19:54 35.211417 -120.596275 301 1169ft 81kts
20-May-17 19:55 35.218326 -120.607922 303 657ft 76kts
20-May-17 19:56 35.222767 -120.615661 300 597ft 66kts
20-May-17 19:57 35.228694 -120.625828 300 471ft 71kts
20-May-17 19:58 35.233117 -120.633538 299 245ft 66kts
20-May-17 19:59 35.236691 -120.639706 324 215ft 26kts
20-May-17 20:00 35.237244 -120.639881 6 215ft 0kts
20-May-17 20:01 35.237969 -120.638444 50 215ft 17kts
20-May-17 20:02 35.238009 -120.637997 171 215ft 0kts
20-May-17 20:03 35.237977 -120.637991 171 215ft 0kts
20-May-17 20:04 35.237939 -120.637984 171 215ft 0kts
20-May-17 20:05 35.237901 -120.637976 171 215ft 0kts
20-May-17 20:06 35.237864 -120.637969 171 215ft 0kts
20-May-17 20:07 35.237826 -120.637962 171 215ft 0kts
20-May-17 20:08 35.237788 -120.637955 171 215ft 0kts
20-May-17 20:09 35.237750 -120.637948 171 215ft 0kts
20-May-17 20:10 35.237712 -120.637941 171 215ft 0kts
20-May-17 20:11 35.237674 -120.637934 171 215ft 0kts
20-May-17 20:12 35.237634 -120.637926 171 215ft 0kts

Navigation Log

Ident Type
1. L88 Airport
2. KSBP Airport